createdAt,value
2023-04-15T00:01:26.461Z,11.97
2023-04-15T00:03:59.597Z,11.20
2023-04-15T00:06:31.234Z,10.57
2023-04-15T00:09:02.560Z,13.47
2023-04-15T00:11:33.943Z,12.10
2023-04-15T00:14:07.572Z,18.73
2023-04-15T00:16:41.644Z,15.47
2023-04-15T00:19:14.959Z,18.80
2023-04-15T00:21:46.145Z,18.20
2023-04-15T00:24:17.218Z,15.20
2023-04-15T00:26:48.088Z,18.77
2023-04-15T00:29:21.903Z,13.70
2023-04-15T00:31:52.738Z,14.27
2023-04-15T00:34:24.206Z,17.00
2023-04-15T00:36:55.380Z,14.97
2023-04-15T00:39:26.349Z,14.30
2023-04-15T00:41:57.685Z,16.67
2023-04-15T00:44:31.319Z,16.97
2023-04-15T00:47:05.110Z,18.87
2023-04-15T00:49:36.266Z,15.63
2023-04-15T00:52:07.491Z,14.70
2023-04-15T00:54:38.555Z,14.57
2023-04-15T00:57:09.899Z,16.23
2023-04-15T00:59:43.395Z,16.90
2023-04-15T01:02:14.591Z,14.37
2023-04-15T01:04:45.635Z,11.20
2023-04-15T01:07:17.585Z,13.17
2023-04-15T01:09:48.863Z,16.27
2023-04-15T01:12:20.716Z,12.77
2023-04-15T01:14:56.624Z,15.13
2023-04-15T01:17:28.406Z,13.73
2023-04-15T01:19:59.749Z,12.97
2023-04-15T01:22:31.661Z,12.87
2023-04-15T01:25:08.608Z,14.53
2023-04-15T01:27:44.157Z,13.20
2023-04-15T01:30:15.739Z,12.20
2023-04-15T01:32:46.804Z,12.13
2023-04-15T01:35:18.363Z,12.20
2023-04-15T01:37:50.086Z,12.10
2023-04-15T01:40:21.553Z,12.17
2023-04-15T01:42:55.051Z,13.60
2023-04-15T01:45:26.781Z,13.90
2023-04-15T01:47:57.958Z,12.00
2023-04-15T01:50:28.926Z,14.17
2023-04-15T01:52:59.853Z,12.27
2023-04-15T01:55:31.055Z,12.60
2023-04-15T01:58:04.699Z,11.97
2023-04-15T02:00:37.982Z,14.67
2023-04-15T02:03:10.004Z,12.80
2023-04-15T02:05:41.132Z,17.67
2023-04-15T02:08:12.548Z,14.03
2023-04-15T02:10:43.408Z,13.07
2023-04-15T02:13:17.126Z,16.60
2023-04-15T02:15:51.053Z,13.93
2023-04-15T02:18:22.261Z,22.10
2023-04-15T02:20:56.802Z,13.30
2023-04-15T02:23:27.770Z,15.23
2023-04-15T02:26:00.001Z,17.80
2023-04-15T02:28:33.524Z,15.30
2023-04-15T02:31:08.305Z,15.53
2023-04-15T02:33:39.406Z,16.27
2023-04-15T02:36:12.689Z,14.90
2023-04-15T02:38:44.045Z,14.30
2023-04-15T02:41:15.151Z,14.20
2023-04-15T02:43:48.685Z,15.43
2023-04-15T02:46:19.897Z,17.67
2023-04-15T02:48:53.957Z,14.17
2023-04-15T02:51:26.101Z,15.90
2023-04-15T02:53:57.037Z,15.00
2023-04-15T02:56:28.294Z,15.70
2023-04-15T02:59:02.081Z,17.10
2023-04-15T03:01:33.319Z,18.23
2023-04-15T03:04:04.368Z,13.90
2023-04-15T03:06:35.536Z,15.53
2023-04-15T03:09:06.534Z,15.87
2023-04-15T03:11:40.840Z,13.40
2023-04-15T03:14:14.411Z,14.03
2023-04-15T03:16:45.522Z,15.80
2023-04-15T03:19:16.870Z,16.93
2023-04-15T03:21:47.875Z,18.80
2023-04-15T03:24:19.029Z,14.13
2023-04-15T03:26:52.026Z,14.47
2023-04-15T03:29:26.015Z,15.17
2023-04-15T03:31:57.086Z,17.83
2023-04-15T03:34:27.999Z,15.77
2023-04-15T03:36:59.177Z,17.83
2023-04-15T03:39:30.454Z,18.23
2023-04-15T03:42:03.583Z,14.30
2023-04-15T03:44:37.289Z,14.53
2023-04-15T03:47:08.245Z,14.83
2023-04-15T03:49:39.695Z,14.13
2023-04-15T03:52:10.722Z,15.43
2023-04-15T03:54:42.196Z,14.13
2023-04-15T03:57:13.253Z,13.43
2023-04-15T03:59:46.750Z,15.83
2023-04-15T04:02:17.679Z,13.50
2023-04-15T04:04:51.218Z,13.73
2023-04-15T04:07:22.243Z,13.90
2023-04-15T04:09:54.677Z,14.77
2023-04-15T04:12:25.725Z,15.70
2023-04-15T04:14:59.253Z,16.87
2023-04-15T04:17:30.153Z,13.77
2023-04-15T04:20:01.337Z,13.90
2023-04-15T04:22:32.171Z,15.70
2023-04-15T04:25:05.712Z,14.57
2023-04-15T04:27:36.576Z,15.57
2023-04-15T04:30:11.568Z,15.27
2023-04-15T04:32:42.585Z,18.80
2023-04-15T04:35:13.575Z,14.97
2023-04-15T04:37:44.683Z,15.07
2023-04-15T04:40:16.889Z,16.50
2023-04-15T04:42:48.191Z,15.20
2023-04-15T04:45:21.818Z,15.43
2023-04-15T04:47:52.733Z,12.90
2023-04-15T04:50:25.915Z,13.07
2023-04-15T04:52:59.986Z,13.00
2023-04-15T04:55:32.152Z,14.30
2023-04-15T04:58:03.085Z,17.57
2023-04-15T05:00:38.044Z,14.70
2023-04-15T05:03:09.322Z,15.20
2023-04-15T05:05:41.257Z,14.10
2023-04-15T05:08:18.532Z,14.70
2023-04-15T05:10:49.692Z,15.30
2023-04-15T05:13:21.873Z,15.27
2023-04-15T05:15:55.773Z,14.80
2023-04-15T05:18:26.789Z,17.87
2023-04-15T05:20:57.759Z,15.77
2023-04-15T05:23:29.025Z,16.63
2023-04-15T05:26:02.857Z,17.67
2023-04-15T05:28:33.755Z,15.60
2023-04-15T05:31:07.448Z,16.03
2023-04-15T05:33:38.496Z,17.23
2023-04-15T05:36:10.181Z,16.40
2023-04-15T05:38:41.146Z,17.83
2023-04-15T05:41:12.423Z,21.23
2023-04-15T05:43:43.401Z,18.87
2023-04-15T05:46:17.162Z,17.07
2023-04-15T05:48:50.141Z,19.83
2023-04-15T05:51:21.506Z,18.37
2023-04-15T05:53:54.923Z,18.60
2023-04-15T05:56:26.997Z,19.00
2023-04-15T05:58:57.965Z,18.90
2023-04-15T06:01:31.553Z,16.43
2023-04-15T06:04:03.140Z,19.77
2023-04-15T06:06:34.810Z,17.10
2023-04-15T06:09:05.710Z,19.50
2023-04-15T06:11:36.859Z,16.40
2023-04-15T06:14:07.758Z,17.93
2023-04-15T06:16:41.531Z,17.00
2023-04-15T06:19:12.615Z,18.80
2023-04-15T06:21:43.840Z,16.40
2023-04-15T06:24:15.038Z,16.77
2023-04-15T06:26:48.842Z,15.93
2023-04-15T06:29:20.016Z,18.70
2023-04-15T06:31:54.054Z,17.93
2023-04-15T06:34:25.749Z,15.97
2023-04-15T06:36:57.636Z,16.27
2023-04-15T06:39:28.603Z,16.00
2023-04-15T06:41:59.577Z,17.13
2023-04-15T06:44:33.385Z,19.37
2023-04-15T06:47:10.028Z,17.40
2023-04-15T06:49:40.901Z,16.17
2023-04-15T06:52:13.188Z,17.50
2023-04-15T06:54:44.174Z,17.60
2023-04-15T06:57:15.145Z,16.70
2023-04-15T06:59:46.411Z,18.53
2023-04-15T07:02:20.143Z,15.67
2023-04-15T07:04:51.247Z,16.00
2023-04-15T07:07:22.121Z,15.67
2023-04-15T07:09:53.885Z,16.37
2023-04-15T07:12:24.850Z,16.30
2023-04-15T07:14:55.962Z,16.67
2023-04-15T07:17:29.553Z,15.37
2023-04-15T07:20:00.525Z,17.90
2023-04-15T07:22:31.549Z,15.80
2023-04-15T07:25:02.469Z,17.30
2023-04-15T07:27:33.630Z,17.10
2023-04-15T07:30:07.320Z,16.07
2023-04-15T07:32:42.919Z,14.43
2023-04-15T07:35:14.784Z,17.77
2023-04-15T07:37:46.218Z,15.60
2023-04-15T07:40:17.426Z,15.03
2023-04-15T07:42:49.633Z,15.80
2023-04-15T07:45:23.056Z,14.57
2023-04-15T07:47:56.958Z,14.67
2023-04-15T07:50:28.115Z,14.70
2023-04-15T07:52:58.970Z,15.67
2023-04-15T07:55:30.769Z,15.20
2023-04-15T07:58:01.704Z,14.73
2023-04-15T08:00:32.738Z,12.73
2023-04-15T08:03:09.541Z,12.13
2023-04-15T08:05:41.163Z,12.87
2023-04-15T08:08:12.156Z,15.30
2023-04-15T08:10:43.126Z,11.77
2023-04-15T08:13:14.055Z,12.57
2023-04-15T08:15:45.072Z,12.33
2023-04-15T08:18:18.577Z,10.63
2023-04-15T08:20:52.423Z,11.23
2023-04-15T08:23:23.846Z,11.10
2023-04-15T08:25:55.186Z,8.73
2023-04-15T08:28:26.116Z,9.37
2023-04-15T08:30:57.006Z,8.93
2023-04-15T08:33:30.526Z,8.90
2023-04-15T08:36:03.938Z,10.83
2023-04-15T08:38:34.803Z,11.00
2023-04-15T08:41:11.043Z,9.37
2023-04-15T08:43:55.007Z,9.00
2023-04-15T08:46:26.919Z,9.27
2023-04-15T08:49:01.719Z,9.07
2023-04-15T08:51:33.193Z,8.80
2023-04-15T08:54:04.899Z,9.00
2023-04-15T08:56:37.271Z,9.00
2023-04-15T08:59:08.692Z,9.43
2023-04-15T09:01:41.204Z,7.97
2023-04-15T09:04:14.959Z,9.27
2023-04-15T09:06:45.891Z,9.00
2023-04-15T09:09:17.116Z,8.80
2023-04-15T09:11:50.082Z,8.90
2023-04-15T09:14:21.166Z,8.97
2023-04-15T09:17:05.261Z,12.07
2023-04-15T09:19:38.756Z,10.60
2023-04-15T09:22:12.515Z,10.10
2023-04-15T09:24:46.916Z,9.20
2023-04-15T09:27:19.829Z,9.43
2023-04-15T09:29:54.171Z,9.47
2023-04-15T09:32:25.194Z,9.50
2023-04-15T09:34:58.661Z,11.30
2023-04-15T09:37:38.871Z,9.70
2023-04-15T09:40:16.575Z,9.30
2023-04-15T09:43:00.589Z,11.10
2023-04-15T09:45:32.173Z,10.07
2023-04-15T09:48:17.930Z,10.17
2023-04-15T09:50:53.773Z,10.90
2023-04-15T09:53:26.135Z,10.50
2023-04-15T09:55:58.694Z,11.10
2023-04-15T09:58:45.348Z,10.57
2023-04-15T10:01:21.627Z,9.50
2023-04-15T10:03:57.381Z,9.43
2023-04-15T10:06:32.669Z,9.93
2023-04-15T10:09:04.422Z,9.90
2023-04-15T10:11:38.622Z,8.60
2023-04-15T10:14:11.357Z,9.20
2023-04-15T10:16:49.188Z,10.33
2023-04-15T10:19:24.630Z,8.53
2023-04-15T10:21:59.098Z,7.63
2023-04-15T10:24:31.241Z,8.90
2023-04-15T10:27:07.126Z,8.80
2023-04-15T10:29:39.464Z,8.93
2023-04-15T10:32:10.861Z,9.47
2023-04-15T10:34:42.330Z,8.63
2023-04-15T10:37:16.121Z,8.43
2023-04-15T10:39:47.249Z,7.87
2023-04-15T10:42:19.781Z,7.93
2023-04-15T10:44:53.766Z,7.90
2023-04-15T10:47:25.696Z,8.07
2023-04-15T10:50:01.760Z,7.83
2023-04-15T10:52:45.624Z,7.87
2023-04-15T10:55:18.094Z,8.33
2023-04-15T10:57:49.421Z,7.80
2023-04-15T11:00:21.754Z,6.83
2023-04-15T11:02:57.535Z,7.37
2023-04-15T11:05:54.145Z,7.30
2023-04-15T11:08:57.376Z,8.10
2023-04-15T11:11:58.111Z,7.93
2023-04-15T11:14:29.404Z,7.33
2023-04-15T11:17:01.136Z,8.57
2023-04-15T11:19:39.758Z,7.77
2023-04-15T11:22:11.738Z,7.37
2023-04-15T11:24:53.237Z,6.60
2023-04-15T11:27:25.354Z,7.67
2023-04-15T11:29:56.281Z,7.93
2023-04-15T11:32:27.249Z,7.97
2023-04-15T11:34:58.490Z,7.23
2023-04-15T11:37:33.717Z,7.73
2023-04-15T11:40:10.798Z,7.93
2023-04-15T11:42:49.521Z,7.47
2023-04-15T11:45:21.374Z,7.30
2023-04-15T11:47:52.284Z,7.80
2023-04-15T11:50:25.132Z,8.40
2023-04-15T11:52:57.671Z,7.57
2023-04-15T11:55:32.244Z,9.07
2023-04-15T11:58:11.836Z,7.70
2023-04-15T12:00:43.654Z,8.50
2023-04-15T12:03:22.941Z,7.60
2023-04-15T12:06:07.840Z,8.60
2023-04-15T12:08:55.741Z,7.27
2023-04-15T12:11:38.328Z,7.77
2023-04-15T12:14:12.783Z,7.60
2023-04-15T12:16:48.879Z,7.30
2023-04-15T12:19:26.026Z,9.03
2023-04-15T12:22:02.219Z,9.73
2023-04-15T12:24:37.278Z,10.63
2023-04-15T12:27:12.478Z,8.40
2023-04-15T12:29:44.742Z,8.30
2023-04-15T12:32:16.905Z,9.30
2023-04-15T12:34:52.817Z,8.97
2023-04-15T12:37:24.112Z,7.50
2023-04-15T12:39:55.139Z,7.20
2023-04-15T12:42:28.919Z,6.90
2023-04-15T12:45:01.022Z,7.43
2023-04-15T12:47:32.099Z,8.67
2023-04-15T12:50:03.655Z,7.17
2023-04-15T12:52:34.573Z,8.20
2023-04-15T12:55:05.561Z,6.60
2023-04-15T12:57:39.980Z,8.00
2023-04-15T13:00:13.739Z,7.47
2023-04-15T13:02:47.359Z,7.97
2023-04-15T13:05:18.517Z,6.67
2023-04-15T13:07:54.340Z,8.17
2023-04-15T13:10:25.598Z,7.73
2023-04-15T13:13:02.373Z,6.10
2023-04-15T13:15:33.442Z,6.70
2023-04-15T13:18:04.798Z,6.00
2023-04-15T13:20:35.747Z,6.10
2023-04-15T13:23:06.976Z,5.40
2023-04-15T13:25:37.982Z,5.93
2023-04-15T13:28:11.961Z,8.93
2023-04-15T13:30:44.351Z,5.57
2023-04-15T13:33:15.477Z,6.03
2023-04-15T13:35:46.533Z,5.57
2023-04-15T13:38:17.481Z,5.60
2023-04-15T13:40:48.652Z,5.90
2023-04-15T13:43:22.340Z,5.60
2023-04-15T13:45:56.570Z,7.63
2023-04-15T13:48:27.529Z,6.60
2023-04-15T13:50:58.604Z,5.07
2023-04-15T13:53:38.428Z,5.27
2023-04-15T13:56:11.211Z,5.30
2023-04-15T13:58:44.696Z,6.47
2023-04-15T14:01:15.867Z,5.77
2023-04-15T14:03:46.970Z,6.10
2023-04-15T14:06:17.989Z,5.73
2023-04-15T14:08:48.912Z,4.67
2023-04-15T14:11:19.903Z,5.30
2023-04-15T14:13:53.507Z,4.50
2023-04-15T14:16:24.559Z,5.07
2023-04-15T14:18:55.857Z,4.90
2023-04-15T14:21:27.995Z,5.23
2023-04-15T14:23:58.935Z,5.77
2023-04-15T14:26:30.092Z,4.80
2023-04-15T14:29:03.907Z,5.17
2023-04-15T14:31:37.953Z,4.80
2023-04-15T14:34:13.249Z,4.70
2023-04-15T14:36:44.675Z,4.00
2023-04-15T14:39:17.137Z,4.07
2023-04-15T14:41:48.201Z,4.93
2023-04-15T14:44:21.992Z,4.30
2023-04-15T14:46:54.997Z,4.20
2023-04-15T14:49:26.209Z,4.00
2023-04-15T14:51:57.383Z,4.30
2023-04-15T14:54:28.409Z,6.53
2023-04-15T14:56:59.366Z,4.30
2023-04-15T14:59:32.965Z,4.10
2023-04-15T15:02:04.112Z,4.50
2023-04-15T15:04:36.184Z,5.30
2023-04-15T15:07:07.206Z,6.97
2023-04-15T15:09:38.190Z,3.60
2023-04-15T15:12:09.446Z,4.40
2023-04-15T15:14:42.910Z,3.70
2023-04-15T15:17:22.701Z,5.50
2023-04-15T15:19:53.903Z,5.33
2023-04-15T15:22:26.082Z,5.47
2023-04-15T15:24:59.344Z,5.10
2023-04-15T15:27:30.406Z,5.33
2023-04-15T15:30:04.034Z,4.97
2023-04-15T15:32:35.178Z,5.10
2023-04-15T15:35:06.553Z,4.93
2023-04-15T15:37:41.110Z,4.97
2023-04-15T15:40:12.890Z,5.20
2023-04-15T15:42:44.183Z,6.47
2023-04-15T15:45:19.447Z,5.10
2023-04-15T15:47:51.082Z,9.30
2023-04-15T15:50:23.295Z,7.07
2023-04-15T15:52:55.245Z,7.00
2023-04-15T15:55:27.332Z,8.83
2023-04-15T15:57:58.396Z,6.70
2023-04-15T16:00:32.018Z,6.63
2023-04-15T16:03:07.289Z,6.83
2023-04-15T16:05:41.814Z,8.83
2023-04-15T16:08:13.111Z,6.97
2023-04-15T16:10:45.809Z,6.73
2023-04-15T16:13:16.743Z,8.17
2023-04-15T16:15:50.378Z,7.27
2023-04-15T16:18:21.471Z,6.67
2023-04-15T16:20:52.531Z,7.17
2023-04-15T16:23:24.075Z,6.80
2023-04-15T16:25:55.135Z,6.67
2023-04-15T16:28:27.175Z,6.83
2023-04-15T16:31:01.069Z,7.53
2023-04-15T16:33:32.383Z,6.93
2023-04-15T16:36:03.729Z,8.23
2023-04-15T16:38:34.994Z,6.63
2023-04-15T16:41:06.034Z,6.57
2023-04-15T16:43:37.054Z,6.70
2023-04-15T16:46:11.070Z,7.50
2023-04-15T16:48:42.194Z,8.00
2023-04-15T16:51:13.204Z,7.47
2023-04-15T16:53:47.477Z,6.17
2023-04-15T16:56:21.862Z,7.03
2023-04-15T16:58:53.352Z,6.83
2023-04-15T17:01:27.114Z,6.50
2023-04-15T17:03:58.329Z,6.00
2023-04-15T17:06:29.611Z,8.00
2023-04-15T17:09:00.745Z,6.23
2023-04-15T17:11:32.184Z,6.60
2023-04-15T17:14:03.214Z,8.67
2023-04-15T17:16:36.705Z,6.20
2023-04-15T17:19:07.819Z,6.10
2023-04-15T17:21:38.880Z,6.73
2023-04-15T17:24:10.300Z,8.60
2023-04-15T17:26:44.313Z,7.27
2023-04-15T17:29:15.224Z,7.13
2023-04-15T17:31:49.012Z,7.03
2023-04-15T17:34:22.442Z,7.63
2023-04-15T17:36:55.111Z,7.47
2023-04-15T17:39:26.558Z,6.60
2023-04-15T17:42:00.062Z,7.90
2023-04-15T17:44:31.181Z,7.43
2023-04-15T17:47:06.403Z,8.67
2023-04-15T17:49:39.234Z,8.40
2023-04-15T17:52:10.163Z,9.57
2023-04-15T17:54:42.214Z,11.73
2023-04-15T17:57:13.341Z,8.70
2023-04-15T17:59:47.832Z,7.90
2023-04-15T18:02:21.635Z,8.50
2023-04-15T18:05:01.721Z,8.13
2023-04-15T18:07:32.789Z,8.43
2023-04-15T18:10:03.742Z,7.60
2023-04-15T18:12:37.937Z,8.27
2023-04-15T18:15:10.644Z,7.30
2023-04-15T18:17:44.216Z,8.07
2023-04-15T18:20:15.764Z,7.77
2023-04-15T18:22:46.835Z,9.37
2023-04-15T18:25:17.944Z,8.33
2023-04-15T18:27:48.966Z,8.80
2023-04-15T18:30:19.977Z,8.57
2023-04-15T18:32:53.532Z,9.00
2023-04-15T18:35:24.537Z,9.43
2023-04-15T18:37:56.302Z,11.03
2023-04-15T18:40:27.382Z,10.60
2023-04-15T18:42:58.930Z,11.10
2023-04-15T18:45:29.875Z,10.10
2023-04-15T18:48:07.199Z,10.17
2023-04-15T18:50:38.223Z,9.73
2023-04-15T18:53:09.373Z,9.53
2023-04-15T18:55:41.656Z,10.00
2023-04-15T18:58:12.653Z,8.10
2023-04-15T19:00:43.980Z,8.53
2023-04-15T19:03:17.653Z,11.37
2023-04-15T19:05:51.664Z,9.73
2023-04-15T19:08:24.701Z,10.47
2023-04-15T19:10:56.422Z,8.40
2023-04-15T19:13:27.477Z,16.60
2023-04-15T19:15:58.435Z,11.00
2023-04-15T19:18:32.257Z,8.70
2023-04-15T19:21:04.127Z,9.30
2023-04-15T19:23:35.189Z,9.33
2023-04-15T19:26:08.319Z,14.57
2023-04-15T19:28:39.601Z,8.83
2023-04-15T19:31:13.289Z,10.00
2023-04-15T19:33:46.898Z,9.13
2023-04-15T19:36:18.259Z,11.07
2023-04-15T19:38:52.623Z,9.70
2023-04-15T19:41:23.691Z,8.23
2023-04-15T19:43:55.076Z,10.67
2023-04-15T19:46:26.362Z,7.83
2023-04-15T19:49:00.630Z,8.40
2023-04-15T19:51:38.579Z,8.83
2023-04-15T19:54:09.583Z,9.40
2023-04-15T19:56:42.488Z,9.00
2023-04-15T19:59:13.403Z,8.50
2023-04-15T20:01:44.979Z,14.97
2023-04-15T20:04:18.651Z,9.07
2023-04-15T20:06:49.610Z,7.97
2023-04-15T20:09:20.828Z,10.00
2023-04-15T20:12:09.931Z,10.37
2023-04-15T20:14:45.690Z,7.83
2023-04-15T20:17:19.720Z,8.53
2023-04-15T20:19:55.736Z,7.93
2023-04-15T20:22:26.643Z,10.37
2023-04-15T20:24:57.747Z,11.37
2023-04-15T20:27:28.662Z,8.53
2023-04-15T20:29:59.564Z,8.33
2023-04-15T20:32:32.807Z,8.00
2023-04-15T20:35:07.442Z,9.53
2023-04-15T20:37:40.702Z,7.80
2023-04-15T20:40:13.095Z,7.67
2023-04-15T20:42:46.571Z,10.13
2023-04-15T20:45:17.684Z,10.27
2023-04-15T20:47:51.794Z,10.00
2023-04-15T20:50:25.258Z,12.73
2023-04-15T20:52:56.335Z,12.80
2023-04-15T20:55:28.954Z,10.93
2023-04-15T20:58:02.417Z,10.80
2023-04-15T21:00:33.465Z,8.97
2023-04-15T21:03:04.738Z,9.90
2023-04-15T21:05:41.579Z,13.87
2023-04-15T21:08:13.002Z,11.20
2023-04-15T21:10:44.256Z,9.93
2023-04-15T21:13:17.811Z,12.13
2023-04-15T21:15:54.488Z,9.70
2023-04-15T21:18:25.862Z,10.97
2023-04-15T21:21:03.108Z,12.20
2023-04-15T21:23:37.123Z,16.20
2023-04-15T21:26:08.100Z,13.87
2023-04-15T21:28:39.433Z,18.43
2023-04-15T21:31:10.301Z,21.53
2023-04-15T21:33:41.242Z,19.30
2023-04-15T21:36:14.829Z,20.67
2023-04-15T21:38:45.726Z,18.40
2023-04-15T21:41:16.552Z,14.70
2023-04-15T21:43:47.556Z,13.57
2023-04-15T21:46:25.338Z,17.93
2023-04-15T21:48:58.336Z,15.77
2023-04-15T21:51:32.747Z,17.63
2023-04-15T21:54:03.693Z,15.50
2023-04-15T21:56:38.095Z,20.80
2023-04-15T21:59:09.254Z,15.63
2023-04-15T22:01:43.248Z,18.43
2023-04-15T22:04:14.392Z,17.23
2023-04-15T22:06:48.324Z,17.67
2023-04-15T22:09:19.612Z,16.70
2023-04-15T22:11:50.692Z,16.37
2023-04-15T22:14:21.599Z,17.00
2023-04-15T22:16:52.716Z,18.13
2023-04-15T22:19:23.653Z,17.10
2023-04-15T22:21:57.181Z,16.17
2023-04-15T22:24:39.412Z,17.37
2023-04-15T22:27:12.287Z,18.53
2023-04-15T22:29:43.649Z,16.60
2023-04-15T22:32:14.635Z,16.97
2023-04-15T22:34:45.624Z,17.23
2023-04-15T22:37:19.123Z,17.80
2023-04-15T22:39:50.701Z,19.60
2023-04-15T22:42:21.746Z,17.17
2023-04-15T22:44:52.764Z,17.87
2023-04-15T22:47:23.759Z,19.47
2023-04-15T22:49:54.670Z,18.70
2023-04-15T22:52:30.963Z,19.97
2023-04-15T22:55:02.575Z,22.90
2023-04-15T22:57:33.625Z,18.57
2023-04-15T23:00:04.514Z,20.83
2023-04-15T23:02:35.643Z,21.50
2023-04-15T23:05:12.081Z,22.50
2023-04-15T23:07:47.039Z,21.03
2023-04-15T23:10:18.109Z,22.93
2023-04-15T23:12:49.192Z,22.00
2023-04-15T23:15:20.313Z,22.80
2023-04-15T23:17:51.382Z,26.53
2023-04-15T23:20:22.348Z,27.07
2023-04-15T23:22:56.059Z,26.00
2023-04-15T23:25:27.370Z,21.10
2023-04-15T23:27:58.627Z,23.50
2023-04-15T23:30:29.735Z,25.50
2023-04-15T23:33:06.247Z,25.37
2023-04-15T23:35:37.913Z,24.47
2023-04-15T23:38:11.511Z,23.47
2023-04-15T23:40:42.682Z,28.73
2023-04-15T23:43:13.683Z,27.50
2023-04-15T23:45:44.832Z,24.33
2023-04-15T23:48:16.092Z,23.13
2023-04-15T23:50:47.064Z,24.07
2023-04-15T23:53:27.455Z,27.63
2023-04-15T23:55:58.708Z,26.57
2023-04-15T23:58:30.262Z,32.20
